Погода Сан-Патрисиона 2 недели

Халиско, Мексика

21 апреля-04 мая
  • 21апреля
    Сегодня
    +20°
    +29°
    Ясно и безоблачно
    ВремяПогодаТемператураВлажностьДавлениеВетер, м/сВероятность осадков
    00:00Ясно и безоблачно+21°C92 %760 мм1.2 м/с1 %
    03:00Практически безоблачно+21°C94 %759 мм1.4 м/с1 %
    06:00Ясно и безоблачно+21°C92 %758 мм1.9 м/с1 %
    09:00Ясно и безоблачно+25°C72 %760 мм0.9 м/с1 %
    12:00Ясно и безоблачно+29°C67 %760 мм3.3 м/с1 %
    15:00Ясно и безоблачно+27°C66 %757 мм5.1 м/с1 %
    18:00Ясно и безоблачно+25°C66 %756 мм3.9 м/с1 %
    21:00Ясно и безоблачно+23°C81 %757 мм2.9 м/с1 %
  • 22апреля
    Понедельник
    +20°
    +27°
    Ясно и безоблачно
    ВремяПогодаТемператураВлажностьДавлениеВетер, м/сВероятность осадков
    00:00Ясно и безоблачно+22°C85 %758 мм2.0 м/с1 %
    03:00Ясно и безоблачно+21°C90 %757 мм0.9 м/с1 %
    06:00Практически безоблачно+22°C92 %757 мм4.1 м/с1 %
    09:00Облачно с прояснениями+24°C78 %759 мм5.2 м/с4 %
    12:00Ясно и безоблачно+27°C69 %759 мм4.4 м/с1 %
    15:00Ясно и безоблачно+27°C68 %758 мм4.7 м/с1 %
    18:00Ясно и безоблачно+25°C72 %758 мм2.9 м/с2 %
    21:00Ясно и безоблачно+23°C86 %759 мм1.7 м/с2 %
  • 23апреля
    Вторник
    +21°
    +28°
    Практически безоблачно
    ВремяПогодаТемператураВлажностьДавлениеВетер, м/сВероятность осадков
    00:00Ясно и безоблачно+23°C86 %760 мм1.1 м/с2 %
    03:00Ясно и безоблачно+21°C85 %759 мм0.7 м/с2 %
    06:00Ясно и безоблачно+21°C86 %759 мм1.1 м/с2 %
    09:00Ясно и безоблачно+25°C68 %761 мм1.4 м/с2 %
    12:00Ясно и безоблачно+27°C56 %760 мм3.1 м/с2 %
    15:00Практически безоблачно+28°C51 %758 мм5.3 м/с2 %
    18:00Ясно и безоблачно+26°C60 %758 мм3.9 м/с2 %
    21:00Практически безоблачно+23°C77 %759 мм2.2 м/с2 %
  • 24апреля
    Среда
    +20°
    +28°
    Небольшая облачность
    ВремяПогодаТемператураВлажностьДавлениеВетер, м/сВероятность осадков
    00:00Ясно и безоблачно+23°C67 %760 мм1.4 м/с2 %
    03:00Облачно с прояснениями+21°C67 %759 мм1.1 м/с2 %
    06:00Облачно с прояснениями+21°C61 %759 мм2.3 м/с2 %
    09:00Облачно с прояснениями+25°C61 %760 мм2.7 м/с2 %
    12:00Облачно с прояснениями+27°C60 %760 мм4.0 м/с2 %
    15:00Небольшая облачность+28°C62 %758 мм4.5 м/с2 %
    18:00Практически безоблачно+26°C75 %758 мм2.3 м/с2 %
    21:00Ясно и безоблачно+24°C90 %759 мм2.0 м/с2 %
  • 25апреля
    Четверг
    +22°
    +28°
    Ясно и безоблачно
    ВремяПогодаТемператураВлажностьДавлениеВетер, м/сВероятность осадков
    00:00Ясно и безоблачно+22°C91 %760 мм1.4 м/с2 %
    03:00Ясно и безоблачно+22°C87 %759 мм1.7 м/с2 %
    06:00Ясно и безоблачно+21°C85 %760 мм1.7 м/с2 %
    09:00Ясно и безоблачно+25°C65 %760 мм2.6 м/с2 %
    12:00Ясно и безоблачно+28°C64 %760 мм3.4 м/с2 %
    15:00Ясно и безоблачно+28°C65 %758 мм4.7 м/с2 %
    18:00Практически безоблачно+26°C78 %757 мм2.7 м/с2 %
    21:00Ясно и безоблачно+23°C86 %758 мм0.8 м/с2 %
Мы используем cookies
Соглашаюсь